Hyundai Republic — A8IL3 — position and weather

sailwx.info

Track history (hours):
 
Tides and Currents Weather Stations Pressure Air Temp Water Temp Dewpoint Dewpoint Depression Visibility Wind Speed Wind Dir Waves Ship Positions

Hyundai Republic

Last reported at 2016-May-28 01:25 UTC. Time now 2016-May-28 04:00 UTC.
Position N 01°16' E 103°58'.

Length 305 m; draft 8.3 m.

Type: Ship (hazmat cat A). MMSI: 636090994.

Date/timePositionNaut miles runAvg speedWind from/ knotsBaromVisibWave heightAir tempDewpointWater temp
2016-May-28 01:25N 01°16' E 103°58'0 0.0
2016-May-28 00:31N 01°16' E 103°58'0 0.0
2016-May-27 23:31N 01°16' E 103°58'0 0.0
2016-May-27 22:25N 01°16' E 103°58'0 0.0
2016-May-27 21:31N 01°16' E 103°58'0 0.0
2016-May-27 20:25N 01°16' E 103°58'0 0.1
2016-May-27 18:10N 01°17' E 103°58'0 0.1
2016-May-27 17:25N 01°17' E 103°58'0 0.1
2016-May-27 16:22N 01°16' E 103°58'0 0.1
2016-May-27 15:22N 01°16' E 103°58'0 0.0
2016-May-27 11:16N 01°17' E 103°58'0 0.1
2016-May-27 10:22N 01°17' E 103°58'0 0.0
2016-May-27 08:18N 01°17' E 103°58'0 0.0
2016-May-27 07:24N 01°17' E 103°58'0 0.0
2016-May-27 06:33N 01°17' E 103°58'0 0.0
2016-May-27 04:18N 01°17' E 103°58'0 0.0
2016-May-27 01:24N 01°16' E 103°58'0 0.0
2016-May-27 00:33N 01°16' E 103°58'0 0.0
2016-May-26 23:24N 01°16' E 103°58'0 0.0
2016-May-26 22:18N 01°16' E 103°58'0 0.0
2016-May-26 21:12N 01°16' E 103°58'0 0.0
2016-May-26 20:12N 01°16' E 103°58'0 0.0
2016-May-26 19:30N 01°16' E 103°58'0 0.1
2016-May-26 18:06N 01°16' E 103°58'0 0.0
2016-May-26 17:27N 01°17' E 103°58'0 0.1
2016-May-26 16:30N 01°17' E 103°58'0 0.0
2016-May-26 13:21N 01°17' E 103°58'0 0.0
2016-May-26 08:27N 01°16' E 103°58'0 0.0
2016-May-26 07:27N 01°16' E 103°58'0 0.0
2016-May-26 05:18N 01°16' E 103°58'0 0.0
2016-May-26 04:30N 01°17' E 103°58'0 0.0
2016-May-26 01:06N 01°16' E 103°58'0 0.0
2016-May-26 00:33N 01°16' E 103°58'0 0.0
2016-May-25 23:30N 01°16' E 103°58'0 0.0
2016-May-25 22:30N 01°16' E 103°58'0 0.0
2016-May-25 21:18N 01°16' E 103°58'0 0.0
2016-May-25 20:11N 01°16' E 103°58'0 0.0
2016-May-25 19:26N 01°16' E 103°58'0 0.0
2016-May-25 18:32N 01°16' E 103°58'0 0.0
2016-May-25 17:32N 01°16' E 103°58'0 0.1
2016-May-25 16:26N 01°17' E 103°58'0 0.3
2016-May-25 15:32N 01°16' E 103°58'0 0.2
2016-May-25 14:26N 01°16' E 103°58'0 0.1
2016-May-25 13:32N 01°16' E 103°58'0 0.0
2016-May-25 11:05N 01°16' E 103°58'0 0.0
2016-May-25 10:32N 01°16' E 103°58'0 0.0
2016-May-25 09:05N 01°16' E 103°58'0 0.1
2016-May-25 08:14N 01°16' E 103°58'0 0.0
2016-May-25 07:26N 01°17' E 103°58'0 0.0
2016-May-25 06:14N 01°17' E 103°58'0 0.1
2016-May-25 05:26N 01°16' E 103°58'0 0.0
2016-May-24 23:20N 01°16' E 103°58'0 0.0
2016-May-24 21:23N 01°16' E 103°58'0 0.0
2016-May-24 20:11N 01°16' E 103°58'0 0.0
2016-May-24 19:26N 01°16' E 103°58'0 0.1
2016-May-24 16:17N 01°16' E 103°58'0 0.0
2016-May-24 14:26N 01°16' E 103°58'0 0.0
2016-May-24 11:14N 01°17' E 103°58'0 0.0
2016-May-24 09:23N 01°17' E 103°58'0 0.1
2016-May-24 07:28N 01°16' E 103°58'2 0.7
2016-May-24 04:33N 01°15' E 103°57'8 6.9
2016-May-24 03:24N 01°13' E 103°49'0 0.1
2016-May-24 02:21N 01°13' E 103°49'0 0.0
2016-May-24 01:33N 01°13' E 103°49'5 4.6
2016-May-24 00:33N 01°14' E 103°54'1010.5
2016-May-23 23:33N 01°16' E 104°04'  
Track history (hours):
 
Tides and Currents Weather Stations Pressure Air Temp Water Temp Dewpoint Dewpoint Depression Visibility Wind Speed Wind Dir Waves Ship Positions

Hyundai Republic

Last reported at 2016-May-28 01:25 UTC. Time now 2016-May-28 04:00 UTC.
Position N 01°16' E 103°58'.

Length 305 m; draft 8.3 m.

Type: Ship (hazmat cat A). MMSI: 636090994.

Date/timePositionNaut miles runAvg speedWind from/ knotsBaromVisibWave heightAir tempDewpointWater temp
2016-May-28 01:25N 01°16' E 103°58'0 0.0
2016-May-28 00:31N 01°16' E 103°58'0 0.0
2016-May-27 23:31N 01°16' E 103°58'0 0.0
2016-May-27 22:25N 01°16' E 103°58'0 0.0
2016-May-27 21:31N 01°16' E 103°58'0 0.0
2016-May-27 20:25N 01°16' E 103°58'0 0.1
2016-May-27 18:10N 01°17' E 103°58'0 0.1
2016-May-27 17:25N 01°17' E 103°58'0 0.1
2016-May-27 16:22N 01°16' E 103°58'0 0.1
2016-May-27 15:22N 01°16' E 103°58'0 0.0
2016-May-27 11:16N 01°17' E 103°58'0 0.1
2016-May-27 10:22N 01°17' E 103°58'0 0.0
2016-May-27 08:18N 01°17' E 103°58'0 0.0
2016-May-27 07:24N 01°17' E 103°58'0 0.0
2016-May-27 06:33N 01°17' E 103°58'0 0.0
2016-May-27 04:18N 01°17' E 103°58'0 0.0
2016-May-27 01:24N 01°16' E 103°58'0 0.0
2016-May-27 00:33N 01°16' E 103°58'0 0.0
2016-May-26 23:24N 01°16' E 103°58'0 0.0
2016-May-26 22:18N 01°16' E 103°58'0 0.0
2016-May-26 21:12N 01°16' E 103°58'0 0.0
2016-May-26 20:12N 01°16' E 103°58'0 0.0
2016-May-26 19:30N 01°16' E 103°58'0 0.1
2016-May-26 18:06N 01°16' E 103°58'0 0.0
2016-May-26 17:27N 01°17' E 103°58'0 0.1
2016-May-26 16:30N 01°17' E 103°58'0 0.0
2016-May-26 13:21N 01°17' E 103°58'0 0.0
2016-May-26 08:27N 01°16' E 103°58'0 0.0
2016-May-26 07:27N 01°16' E 103°58'0 0.0
2016-May-26 05:18N 01°16' E 103°58'0 0.0
2016-May-26 04:30N 01°17' E 103°58'0 0.0
2016-May-26 01:06N 01°16' E 103°58'0 0.0
2016-May-26 00:33N 01°16' E 103°58'0 0.0
2016-May-25 23:30N 01°16' E 103°58'0 0.0
2016-May-25 22:30N 01°16' E 103°58'0 0.0
2016-May-25 21:18N 01°16' E 103°58'0 0.0
2016-May-25 20:11N 01°16' E 103°58'0 0.0
2016-May-25 19:26N 01°16' E 103°58'0 0.0
2016-May-25 18:32N 01°16' E 103°58'0 0.0
2016-May-25 17:32N 01°16' E 103°58'0 0.1
2016-May-25 16:26N 01°17' E 103°58'0 0.3
2016-May-25 15:32N 01°16' E 103°58'0 0.2
2016-May-25 14:26N 01°16' E 103°58'0 0.1
2016-May-25 13:32N 01°16' E 103°58'0 0.0
2016-May-25 11:05N 01°16' E 103°58'0 0.0
2016-May-25 10:32N 01°16' E 103°58'0 0.0
2016-May-25 09:05N 01°16' E 103°58'0 0.1
2016-May-25 08:14N 01°16' E 103°58'0 0.0
2016-May-25 07:26N 01°17' E 103°58'0 0.0
2016-May-25 06:14N 01°17' E 103°58'0 0.1
2016-May-25 05:26N 01°16' E 103°58'0 0.0
2016-May-24 23:20N 01°16' E 103°58'0 0.0
2016-May-24 21:23N 01°16' E 103°58'0 0.0
2016-May-24 20:11N 01°16' E 103°58'0 0.0
2016-May-24 19:26N 01°16' E 103°58'0 0.1
2016-May-24 16:17N 01°16' E 103°58'0 0.0
2016-May-24 14:26N 01°16' E 103°58'0 0.0
2016-May-24 11:14N 01°17' E 103°58'0 0.0
2016-May-24 09:23N 01°17' E 103°58'0 0.1
2016-May-24 07:28N 01°16' E 103°58'2 0.7
2016-May-24 04:33N 01°15' E 103°57'8 6.9
2016-May-24 03:24N 01°13' E 103°49'0 0.1
2016-May-24 02:21N 01°13' E 103°49'0 0.0
2016-May-24 01:33N 01°13' E 103°49'5 4.6
2016-May-24 00:33N 01°14' E 103°54'1010.5
2016-May-23 23:33N 01°16' E 104°04'  

Dump ship's entire track history